Time;durP1;ratioP1;P1;durP2;ratioP2;P2;SDS_P1;SDS_P2;PMS_P1;PMS_P2;Temp;Humidity;BMP_temperature;BMP_pressure;BME280_temperature;BME280_humidity;BME280_pressure;Samples;Min_cycle;Max_cycle;Signal;HPM_P1;HPM_P2
2022/01/11 00:00:13;;;;;;;24.53;19.63;;;1.20;99.90;;;;;;5012357;28;20241;-81
2022/01/11 00:02:44;;;;;;;30.63;19.00;;;1.10;99.90;;;;;;5012962;28;20235;-82
2022/01/11 00:05:21;;;;;;;28.10;19.27;;;1.10;99.90;;;;;;5012702;28;20251;-81
2022/01/11 00:07:50;;;;;;;26.23;19.03;;;1.10;99.90;;;;;;5012881;28;20272;-82
2022/01/11 00:10:26;;;;;;;21.03;17.47;;;1.00;99.90;;;;;;5012370;28;20294;-82
2022/01/11 00:12:54;;;;;;;27.90;20.53;;;1.10;99.90;;;;;;5012402;28;20230;-82
2022/01/11 00:15:23;;;;;;;23.70;18.87;;;1.10;99.90;;;;;;5012440;28;20259;-81
2022/01/11 00:17:52;;;;;;;26.90;18.30;;;1.10;99.90;;;;;;5012833;28;20204;-82
2022/01/11 00:20:22;;;;;;;30.73;19.00;;;1.10;99.90;;;;;;5012333;28;20293;-82
2022/01/11 00:24:27;;;;;;;25.60;17.70;;;1.10;99.90;;;;;;5012365;28;20207;-81
2022/01/11 00:25:47;;;;;;;27.77;19.73;;;1.10;99.90;;;;;;5012598;28;20199;-81
2022/01/11 00:28:17;;;;;;;21.37;17.73;;;1.10;99.90;;;;;;5012461;28;20226;-81
2022/01/11 00:30:50;;;;;;;23.37;18.73;;;1.10;99.90;;;;;;5010956;28;20203;-81
2022/01/11 00:33:30;;;;;;;35.00;18.90;;;1.20;99.90;;;;;;5012614;28;20246;-82
2022/01/11 00:36:00;;;;;;;32.93;18.20;;;1.10;99.90;;;;;;5015288;28;20190;-82
2022/01/11 00:38:31;;;;;;;22.97;17.50;;;1.10;99.90;;;;;;5016438;28;20237;-82
2022/01/11 00:41:01;;;;;;;20.03;16.23;;;1.00;99.90;;;;;;5015952;28;20261;-82
2022/01/11 00:43:30;;;;;;;25.43;17.90;;;1.10;99.90;;;;;;5016411;28;20271;-82
2022/01/11 00:45:59;;;;;;;27.57;16.63;;;1.10;99.90;;;;;;5016401;28;20238;-82
2022/01/11 00:48:29;;;;;;;21.57;17.00;;;1.10;99.90;;;;;;5016132;28;20250;-81
2022/01/11 00:51:00;;;;;;;30.40;17.57;;;1.10;99.90;;;;;;5015592;28;20226;-82
2022/01/11 00:53:28;;;;;;;21.77;16.03;;;1.10;99.90;;;;;;5016140;28;20226;-82
2022/01/11 00:55:56;;;;;;;21.77;15.70;;;1.10;99.90;;;;;;5016038;28;20294;-82
2022/01/11 00:58:25;;;;;;;20.83;15.87;;;1.10;99.90;;;;;;5015966;28;20245;-82
2022/01/11 01:00:53;;;;;;;20.77;15.53;;;1.00;99.90;;;;;;5015829;28;20206;-82
2022/01/11 01:03:22;;;;;;;23.37;17.03;;;1.10;99.90;;;;;;5015881;28;20210;-81
2022/01/11 01:05:50;;;;;;;25.40;16.57;;;1.10;99.90;;;;;;5015800;28;20238;-82
2022/01/11 01:08:20;;;;;;;21.17;16.60;;;1.00;99.90;;;;;;5016139;28;20222;-82
2022/01/11 01:10:50;;;;;;;27.80;14.87;;;0.90;99.90;;;;;;5015690;28;20298;-82
2022/01/11 01:13:20;;;;;;;24.03;15.87;;;0.80;99.90;;;;;;5015970;28;20242;-82
2022/01/11 01:15:51;;;;;;;21.93;15.27;;;0.80;99.90;;;;;;5015855;28;20207;-81
2022/01/11 01:18:22;;;;;;;31.10;17.03;;;0.70;99.90;;;;;;5015563;28;20218;-82
2022/01/11 01:20:51;;;;;;;38.10;17.90;;;0.70;99.90;;;;;;5015717;28;20211;-82
2022/01/11 01:23:22;;;;;;;20.17;15.10;;;0.80;99.90;;;;;;5015658;28;20306;-82
2022/01/11 01:25:50;;;;;;;23.40;15.77;;;0.80;99.90;;;;;;5015628;28;20258;-82
2022/01/11 01:28:20;;;;;;;19.70;14.90;;;0.80;99.90;;;;;;5015739;28;20319;-82
2022/01/11 01:30:49;;;;;;;23.00;15.77;;;0.80;99.90;;;;;;5013752;28;20230;-81
2022/01/11 01:33:17;;;;;;;23.53;16.97;;;0.80;99.90;;;;;;5015522;28;20244;-82
2022/01/11 01:35:51;;;;;;;23.07;15.77;;;0.80;99.90;;;;;;5015323;28;20245;-82
2022/01/11 01:38:23;;;;;;;24.10;17.53;;;0.80;99.90;;;;;;5015396;28;20334;-81
2022/01/11 01:40:55;;;;;;;23.03;15.63;;;0.80;99.90;;;;;;5015256;28;20238;-82
2022/01/11 01:43:24;;;;;;;24.77;16.03;;;0.70;99.90;;;;;;5015654;28;20210;-81
2022/01/11 01:45:54;;;;;;;20.10;15.13;;;0.70;99.90;;;;;;5014921;28;20204;-82
2022/01/11 01:48:22;;;;;;;15.63;13.93;;;0.70;99.90;;;;;;5014898;28;20358;-82
2022/01/11 01:50:51;;;;;;;21.23;15.87;;;0.70;99.90;;;;;;5014593;28;20303;-82
2022/01/11 01:53:21;;;;;;;21.20;16.27;;;0.70;99.90;;;;;;5015121;28;20302;-82
2022/01/11 01:55:50;;;;;;;26.83;15.40;;;0.70;99.90;;;;;;5015130;28;20246;-82
2022/01/11 01:58:19;;;;;;;28.50;17.30;;;0.70;99.90;;;;;;5015077;28;20290;-81
2022/01/11 02:00:54;;;;;;;20.23;15.03;;;0.60;99.90;;;;;;5014495;28;20231;-82
2022/01/11 02:03:27;;;;;;;20.77;13.73;;;0.60;99.90;;;;;;5014633;28;20221;-81
2022/01/11 02:05:57;;;;;;;18.03;14.00;;;0.60;99.90;;;;;;5014866;28;20215;-82
2022/01/11 02:08:27;;;;;;;23.17;14.87;;;0.50;99.90;;;;;;5014966;28;20227;-82
2022/01/11 02:10:56;;;;;;;21.13;14.70;;;0.50;99.90;;;;;;5014514;28;20242;-81
2022/01/11 02:13:24;;;;;;;23.43;15.70;;;0.50;99.90;;;;;;5014553;28;20207;-81
2022/01/11 02:15:54;;;;;;;22.30;15.00;;;0.50;99.90;;;;;;5014728;28;20333;-81
2022/01/11 02:18:25;;;;;;;19.10;14.23;;;0.60;99.90;;;;;;5014574;28;20207;-82
2022/01/11 02:20:58;;;;;;;17.53;13.03;;;0.50;99.90;;;;;;5014634;28;20235;-82
2022/01/11 02:23:28;;;;;;;18.03;13.33;;;0.50;99.90;;;;;;5014332;28;20203;-82
2022/01/11 02:25:57;;;;;;;18.73;13.47;;;0.50;99.90;;;;;;5014422;28;20265;-82
2022/01/11 02:28:26;;;;;;;19.87;13.70;;;0.50;99.90;;;;;;5014334;28;20240;-82
2022/01/11 02:30:56;;;;;;;20.27;14.70;;;0.50;99.90;;;;;;5012734;28;20203;-81
2022/01/11 02:33:33;;;;;;;17.07;13.43;;;0.40;99.90;;;;;;5014353;28;20270;-81
2022/01/11 02:36:07;;;;;;;21.27;14.50;;;0.40;99.90;;;;;;5014371;28;20218;-81
2022/01/11 02:38:36;;;;;;;20.87;14.10;;;0.30;99.90;;;;;;5014065;28;20223;-81
2022/01/11 02:41:05;;;;;;;24.97;13.23;;;0.30;99.90;;;;;;5013804;28;20278;-81
2022/01/11 02:43:33;;;;;;;22.93;13.67;;;0.30;99.90;;;;;;5013922;28;20207;-83
2022/01/11 02:46:02;;;;;;;17.07;12.73;;;0.30;99.90;;;;;;5013874;28;20203;-82
2022/01/11 02:48:30;;;;;;;19.83;13.27;;;0.30;99.90;;;;;;5014159;28;20203;-82
2022/01/11 02:50:59;;;;;;;17.97;12.30;;;0.30;99.90;;;;;;5013690;28;20207;-82
2022/01/11 02:53:28;;;;;;;13.50;10.47;;;0.30;99.90;;;;;;5013784;28;20299;-82
2022/01/11 02:55:57;;;;;;;14.17;11.27;;;0.30;99.90;;;;;;5014030;28;20215;-82
2022/01/11 02:58:26;;;;;;;20.20;12.40;;;0.20;99.90;;;;;;5012855;28;20237;-82
2022/01/11 03:00:54;;;;;;;20.07;13.13;;;0.20;99.90;;;;;;5013247;28;20254;-82
2022/01/11 03:03:24;;;;;;;19.13;13.17;;;0.30;99.90;;;;;;5013831;28;20199;-81
2022/01/11 03:05:54;;;;;;;17.63;12.90;;;0.30;99.90;;;;;;5013770;28;20277;-82
2022/01/11 03:08:24;;;;;;;20.83;13.17;;;0.30;99.90;;;;;;5013256;28;20230;-82
2022/01/11 03:10:55;;;;;;;13.90;11.57;;;0.40;99.90;;;;;;5012716;28;20223;-81
2022/01/11 03:13:24;;;;;;;17.97;12.10;;;0.40;99.90;;;;;;5013425;28;20238;-81
2022/01/11 03:15:53;;;;;;;16.53;11.93;;;0.40;99.90;;;;;;5013393;28;20292;-82
2022/01/11 03:18:22;;;;;;;17.60;13.30;;;0.40;99.90;;;;;;5013465;28;20210;-82
2022/01/11 03:20:53;;;;;;;19.73;13.00;;;0.40;99.90;;;;;;5013323;28;20230;-82
2022/01/11 03:23:22;;;;;;;20.83;12.53;;;0.40;99.90;;;;;;5013428;28;20242;-82
2022/01/11 03:25:52;;;;;;;16.40;10.77;;;0.40;99.90;;;;;;5013043;28;20234;-82
2022/01/11 03:28:23;;;;;;;17.77;13.27;;;0.30;99.90;;;;;;5013530;28;20210;-82
2022/01/11 03:30:53;;;;;;;16.57;11.60;;;0.40;99.90;;;;;;5012027;28;20227;-82
2022/01/11 03:33:22;;;;;;;20.60;11.47;;;0.40;99.90;;;;;;5013530;28;20271;-81
2022/01/11 03:35:51;;;;;;;12.73;10.27;;;0.40;99.90;;;;;;5013129;28;20242;-82
2022/01/11 03:38:22;;;;;;;18.43;12.90;;;0.40;99.90;;;;;;5013084;28;20227;-82
2022/01/11 03:40:51;;;;;;;13.17;10.40;;;0.30;99.90;;;;;;5012741;28;20207;-82
2022/01/11 03:43:24;;;;;;;18.87;12.53;;;0.40;99.90;;;;;;5013038;28;20207;-82
2022/01/11 03:45:53;;;;;;;17.17;12.30;;;0.30;99.90;;;;;;5013032;28;20208;-81
2022/01/11 03:48:21;;;;;;;14.97;11.57;;;0.30;99.90;;;;;;5012951;28;20215;-82
2022/01/11 03:50:53;;;;;;;14.00;11.03;;;0.30;99.90;;;;;;5012233;28;20247;-82
2022/01/11 03:53:26;;;;;;;17.80;12.30;;;0.40;99.90;;;;;;5012745;28;20314;-82
2022/01/11 03:56:22;;;;;;;20.43;12.50;;;0.40;99.90;;;;;;5012805;28;20242;-81
2022/01/11 03:58:53;;;;;;;12.37;10.43;;;0.40;99.90;;;;;;5012401;28;20214;-82
2022/01/11 04:01:23;;;;;;;31.20;12.20;;;0.40;99.90;;;;;;5013260;28;20199;-82
2022/01/11 04:03:51;;;;;;;14.83;11.80;;;0.40;99.90;;;;;;5012550;28;20245;-82
2022/01/11 04:06:20;;;;;;;16.23;11.20;;;0.40;99.90;;;;;;5012960;28;20235;-81
2022/01/11 04:08:48;;;;;;;13.97;11.03;;;0.40;99.90;;;;;;5012437;28;20250;-82
2022/01/11 04:11:17;;;;;;;19.63;13.27;;;0.40;99.90;;;;;;5012500;28;20223;-81
2022/01/11 04:13:45;;;;;;;15.53;10.57;;;0.30;99.90;;;;;;5012658;28;20265;-82
2022/01/11 04:16:16;;;;;;;14.83;11.43;;;0.30;99.90;;;;;;5012415;28;20207;-82
2022/01/11 04:18:44;;;;;;;17.00;12.00;;;0.30;99.90;;;;;;5012095;28;20227;-81
2022/01/11 04:21:13;;;;;;;15.80;14.17;;;0.30;99.90;;;;;;5012647;28;20238;-82
2022/01/11 04:23:41;;;;;;;13.67;11.47;;;0.40;99.90;;;;;;5012505;28;20231;-82
2022/01/11 04:26:09;;;;;;;15.40;11.93;;;0.40;99.90;;;;;;5012422;28;20234;-82
2022/01/11 04:28:38;;;;;;;22.83;14.63;;;0.40;99.90;;;;;;5012486;28;20299;-81
2022/01/11 04:31:06;;;;;;;18.30;12.77;;;0.40;99.90;;;;;;5011920;28;20257;-81
2022/01/11 04:33:36;;;;;;;17.57;12.97;;;0.40;99.90;;;;;;5012446;28;20215;-82
2022/01/11 04:36:05;;;;;;;15.40;12.13;;;0.40;99.90;;;;;;5012766;28;20215;-82
2022/01/11 04:38:33;;;;;;;15.43;10.80;;;0.30;99.90;;;;;;5012268;28;20239;-82
2022/01/11 04:41:01;;;;;;;20.00;11.83;;;0.20;99.90;;;;;;5011685;28;20290;-82
2022/01/11 04:43:31;;;;;;;16.53;11.97;;;0.20;99.90;;;;;;5012414;28;20274;-82
2022/01/11 04:46:00;;;;;;;15.67;11.33;;;0.20;99.90;;;;;;5012352;28;20286;-82
2022/01/11 04:48:32;;;;;;;17.60;13.13;;;0.30;99.90;;;;;;5012589;28;20277;-82
2022/01/11 04:51:04;;;;;;;23.60;12.33;;;0.30;99.90;;;;;;5011950;28;20257;-81
2022/01/11 04:53:33;;;;;;;14.07;11.00;;;0.30;99.90;;;;;;5012415;28;20238;-82
2022/01/11 04:56:01;;;;;;;14.67;11.80;;;0.30;99.90;;;;;;5012137;28;20310;-82
2022/01/11 04:58:29;;;;;;;13.83;10.80;;;0.30;99.90;;;;;;5011947;28;20266;-82
2022/01/11 05:00:58;;;;;;;16.73;11.40;;;0.30;99.90;;;;;;5011797;28;20200;-81
2022/01/11 05:03:26;;;;;;;13.93;9.97;;;0.20;99.90;;;;;;5012215;28;20203;-82
2022/01/11 05:05:55;;;;;;;16.67;11.80;;;0.20;99.90;;;;;;5012220;28;20233;-81
2022/01/11 05:08:25;;;;;;;13.97;11.00;;;0.10;99.90;;;;;;5011944;28;20303;-82
2022/01/11 05:10:53;;;;;;;14.67;11.37;;;0.10;99.90;;;;;;5011414;28;20317;-82
2022/01/11 05:13:22;;;;;;;13.83;10.60;;;0.20;99.90;;;;;;5012183;28;20207;-82
2022/01/11 05:15:51;;;;;;;14.70;10.60;;;0.20;99.90;;;;;;5012061;28;20235;-81
2022/01/11 05:18:19;;;;;;;11.47;9.77;;;0.20;99.90;;;;;;5012395;28;20211;-81
2022/01/11 05:20:50;;;;;;;16.17;11.33;;;0.20;99.90;;;;;;5012319;28;20237;-81
2022/01/11 05:23:18;;;;;;;14.50;11.77;;;0.20;99.90;;;;;;5015715;28;20245;-81
2022/01/11 05:25:48;;;;;;;15.00;9.63;;;0.10;99.90;;;;;;5015704;28;20286;-80
2022/01/11 05:28:16;;;;;;;17.23;11.30;;;0.20;99.90;;;;;;5015400;28;20306;-81
2022/01/11 05:30:44;;;;;;;12.80;10.17;;;0.20;99.90;;;;;;5013527;28;20261;-81
2022/01/11 05:33:13;;;;;;;13.17;9.77;;;0.30;99.90;;;;;;5015247;28;20294;-82
2022/01/11 05:35:42;;;;;;;10.13;9.00;;;0.20;99.90;;;;;;5015424;28;20227;-81
2022/01/11 05:38:11;;;;;;;13.47;10.97;;;0.10;99.90;;;;;;5015209;28;20293;-81
2022/01/11 05:40:39;;;;;;;12.40;9.87;;;0.10;99.90;;;;;;5014431;28;20199;-81
2022/01/11 05:43:12;;;;;;;12.67;10.27;;;0.20;99.90;;;;;;5015461;28;20265;-81
2022/01/11 05:45:40;;;;;;;13.40;9.97;;;0.20;99.90;;;;;;5015285;28;20223;-81
2022/01/11 05:48:08;;;;;;;18.00;11.97;;;0.20;99.90;;;;;;5015520;28;20215;-81
2022/01/11 05:50:47;;;;;;;17.50;10.80;;;0.10;99.90;;;;;;5014172;28;20219;-81
2022/01/11 05:53:16;;;;;;;17.90;11.67;;;0.20;99.90;;;;;;5015023;28;20203;-81
2022/01/11 05:55:44;;;;;;;11.83;9.60;;;0.20;99.90;;;;;;5015093;28;20251;-82
2022/01/11 05:58:16;;;;;;;17.97;12.40;;;0.20;99.90;;;;;;5015132;28;20293;-82
2022/01/11 06:00:44;;;;;;;14.90;10.40;;;0.20;99.90;;;;;;5014356;28;20238;-82
2022/01/11 06:03:13;;;;;;;13.97;10.50;;;0.20;99.90;;;;;;5014902;28;20227;-82
2022/01/11 06:05:42;;;;;;;14.47;11.17;;;0.20;99.90;;;;;;5014385;28;20277;-81
2022/01/11 06:08:16;;;;;;;19.10;12.10;;;0.20;99.90;;;;;;5014744;28;20265;-82
2022/01/11 06:10:45;;;;;;;21.03;12.03;;;0.20;99.90;;;;;;5014046;28;20250;-81
2022/01/11 06:13:15;;;;;;;20.53;10.47;;;0.20;99.90;;;;;;5014560;28;20203;-81
2022/01/11 06:15:43;;;;;;;14.77;9.97;;;0.20;99.90;;;;;;5014346;28;20296;-81
2022/01/11 06:18:12;;;;;;;13.60;10.50;;;0.20;99.90;;;;;;5014383;28;20265;-82
2022/01/11 06:20:41;;;;;;;10.57;9.33;;;0.20;99.90;;;;;;5013988;28;20207;-82
2022/01/11 06:23:10;;;;;;;12.87;11.20;;;0.20;99.90;;;;;;5014331;28;20202;-81
2022/01/11 06:25:39;;;;;;;15.27;11.73;;;0.20;99.90;;;;;;5014400;28;20231;-81
2022/01/11 06:28:07;;;;;;;16.33;10.90;;;0.20;99.90;;;;;;5014902;28;20211;-81
2022/01/11 06:30:37;;;;;;;19.80;13.37;;;0.20;99.90;;;;;;5012856;28;20230;-81
2022/01/11 06:33:06;;;;;;;13.80;10.77;;;0.20;99.90;;;;;;5014324;28;20250;-81
2022/01/11 06:35:35;;;;;;;16.10;11.93;;;0.30;99.90;;;;;;5013907;28;20230;-80
2022/01/11 06:38:03;;;;;;;14.03;10.43;;;0.30;99.90;;;;;;5014393;28;20218;-81
2022/01/11 06:40:31;;;;;;;15.30;10.70;;;0.20;99.90;;;;;;5013838;28;20265;-81
2022/01/11 06:43:00;;;;;;;15.30;11.03;;;0.10;99.90;;;;;;5013858;28;20230;-81
2022/01/11 06:45:29;;;;;;;15.50;10.57;;;0.10;99.90;;;;;;5014023;28;20235;-81
2022/01/11 06:48:00;;;;;;;13.10;10.73;;;0.10;99.90;;;;;;5014321;28;20211;-81
2022/01/11 06:50:31;;;;;;;18.10;11.77;;;0.20;99.90;;;;;;5013178;28;20261;-81
2022/01/11 06:53:05;;;;;;;17.83;11.77;;;0.10;99.90;;;;;;5014010;28;20203;-81
2022/01/11 06:55:34;;;;;;;13.33;9.73;;;0.10;99.90;;;;;;5013758;28;20230;-81
2022/01/11 06:58:06;;;;;;;19.10;10.77;;;0.10;99.90;;;;;;5013994;28;20298;-81
2022/01/11 07:00:34;;;;;;;19.73;11.37;;;0.10;99.90;;;;;;5013291;28;20238;-81
2022/01/11 07:03:07;;;;;;;14.53;9.83;;;0.10;99.90;;;;;;5013757;28;20211;-82
2022/01/11 07:05:37;;;;;;;12.93;10.63;;;0.20;99.90;;;;;;5013785;28;20227;-82
2022/01/11 07:15:25;;;;;;;16.43;10.87;;;0.20;99.90;;;;;;5070311;23;20439;-84
2022/01/11 07:18:41;;;;;;;13.63;11.47;;;0.20;99.90;;;;;;4993577;28;20231;-84
2022/01/11 07:25:00;;;;;;;21.83;11.23;;;0.20;99.90;;;;;;4920826;29;20217;-83
2022/01/11 07:27:40;;;;;;;13.47;11.03;;;0.10;99.90;;;;;;4952393;29;20204;-84
2022/01/11 07:30:14;;;;;;;14.30;10.23;;;0.10;99.90;;;;;;4951707;29;20228;-83
2022/01/11 07:32:44;;;;;;;12.67;10.23;;;0.10;99.90;;;;;;4948924;29;20252;-83
2022/01/11 07:35:27;;;;;;;19.20;11.37;;;0.00;99.90;;;;;;4948924;29;20364;-84
2022/01/11 07:41:35;;;;;;;14.10;10.03;;;0.00;99.90;;;;;;4926038;28;20204;-84
2022/01/11 07:47:12;;;;;;;19.77;9.90;;;0.10;99.90;;;;;;4952726;29;20208;-83
2022/01/11 07:49:59;;;;;;;12.50;10.50;;;0.00;99.90;;;;;;4951693;29;20197;-84
2022/01/11 07:52:59;;;;;;;16.83;10.63;;;0.00;99.90;;;;;;4951801;29;20217;-83
2022/01/11 07:58:46;;;;;;;12.07;8.60;;;0.10;99.90;;;;;;4946981;29;20209;-83
2022/01/11 08:01:14;;;;;;;19.00;10.33;;;0.10;99.90;;;;;;4959738;28;20220;-83
2022/01/11 08:04:02;;;;;;;12.63;9.90;;;0.10;99.90;;;;;;5018828;28;20229;-84
2022/01/11 08:06:32;;;;;;;14.60;9.83;;;0.10;99.90;;;;;;5025985;28;20256;-84
2022/01/11 08:09:07;;;;;;;16.47;10.90;;;0.00;99.90;;;;;;5017872;28;20210;-84
2022/01/11 08:11:42;;;;;;;13.70;10.37;;;0.10;99.90;;;;;;5015253;28;20222;-84
2022/01/11 08:14:15;;;;;;;17.70;10.80;;;0.10;99.90;;;;;;5012988;28;20210;-83
2022/01/11 08:16:44;;;;;;;15.53;10.30;;;0.00;99.90;;;;;;5011729;28;20265;-83
2022/01/11 08:19:12;;;;;;;17.27;9.53;;;0.00;99.90;;;;;;5010027;28;20230;-83
2022/01/11 08:21:41;;;;;;;12.87;10.30;;;0.00;99.90;;;;;;5012096;28;20195;-84
2022/01/11 08:24:11;;;;;;;17.93;11.20;;;0.10;99.90;;;;;;5028433;28;20246;-83
2022/01/11 08:26:49;;;;;;;13.03;9.53;;;0.20;99.90;;;;;;5012145;28;20207;-84
2022/01/11 08:32:26;;;;;;;11.83;9.73;;;0.20;99.90;;;;;;4997298;28;20218;-84
2022/01/11 08:35:20;;;;;;;18.33;10.43;;;0.30;99.90;;;;;;5002255;28;20277;-84
2022/01/11 08:37:54;;;;;;;13.10;9.57;;;0.20;99.90;;;;;;5013258;28;20199;-84
2022/01/11 08:40:32;;;;;;;13.63;9.97;;;0.20;99.90;;;;;;5022374;28;20207;-79
2022/01/11 08:43:13;;;;;;;14.33;10.33;;;0.30;99.90;;;;;;5028975;28;20276;-83
2022/01/11 08:45:47;;;;;;;12.03;8.97;;;0.40;99.90;;;;;;5013979;28;20219;-84
2022/01/11 08:59:45;;;;;;;17.40;10.43;;;0.40;99.90;;;;;;5056298;28;20217;-88
2022/01/11 09:02:32;;;;;;;;;;;;;;;;;;;;;
2022/01/11 09:09:13;;;;;;;15.60;9.37;;;0.30;99.90;;;;;;4945227;29;20189;-80
2022/01/11 09:12:35;;;;;;;14.20;9.43;;;0.30;99.90;;;;;;4960068;28;20271;-80
2022/01/11 09:15:12;;;;;;;16.27;8.87;;;0.30;99.90;;;;;;4993781;28;20228;-81
2022/01/11 09:18:00;;;;;;;17.77;10.53;;;0.30;99.90;;;;;;4997804;28;20269;-81
2022/01/11 09:20:34;;;;;;;11.13;8.67;;;0.30;99.90;;;;;;4993598;28;20220;-81
2022/01/11 09:23:06;;;;;;;11.63;9.03;;;0.40;99.90;;;;;;4993876;28;20208;-80
2022/01/11 09:25:38;;;;;;;11.67;9.00;;;0.50;99.90;;;;;;4993483;28;20232;-80
2022/01/11 09:28:07;;;;;;;16.03;9.57;;;0.50;99.90;;;;;;4993472;28;20212;-80
2022/01/11 09:30:37;;;;;;;19.00;10.93;;;0.60;99.90;;;;;;4993249;28;20208;-80
2022/01/11 09:33:06;;;;;;;12.70;10.37;;;0.50;99.90;;;;;;4993556;28;20220;-80
2022/01/11 09:35:35;;;;;;;14.10;9.90;;;0.60;99.90;;;;;;4985110;28;20364;-81
2022/01/11 09:38:09;;;;;;;14.33;9.97;;;0.60;99.90;;;;;;4974649;28;20204;-81
2022/01/11 09:40:38;;;;;;;13.30;10.17;;;0.60;99.90;;;;;;4992893;28;20211;-81
2022/01/11 09:43:11;;;;;;;10.57;8.87;;;0.60;99.90;;;;;;4981041;28;20215;-80
2022/01/11 09:45:42;;;;;;;12.03;9.40;;;0.70;99.90;;;;;;5001543;28;20297;-80
2022/01/11 09:48:13;;;;;;;19.13;10.33;;;0.70;99.90;;;;;;5054066;28;20261;-81
2022/01/11 09:50:44;;;;;;;11.30;9.40;;;0.70;99.90;;;;;;5053718;28;20237;-81
2022/01/11 09:53:15;;;;;;;15.57;10.03;;;0.80;99.90;;;;;;5054650;28;20305;-81
2022/01/11 09:55:46;;;;;;;13.97;8.73;;;0.80;99.90;;;;;;5054483;28;20309;-81
2022/01/11 09:58:16;;;;;;;13.70;10.20;;;0.80;99.90;;;;;;5054014;28;20271;-81
2022/01/11 10:00:49;;;;;;;13.33;9.57;;;0.70;99.90;;;;;;5053716;28;20206;-81
2022/01/11 10:03:18;;;;;;;13.40;9.30;;;0.70;99.90;;;;;;5054327;28;20208;-81
2022/01/11 10:05:47;;;;;;;12.67;9.97;;;0.80;99.90;;;;;;5054507;28;20209;-81
2022/01/11 10:08:21;;;;;;;17.27;11.17;;;0.80;99.90;;;;;;5054094;28;20206;-81
2022/01/11 10:10:52;;;;;;;16.80;11.17;;;0.90;99.90;;;;;;5053688;28;20212;-82
2022/01/11 10:13:32;;;;;;;12.43;10.00;;;1.00;99.90;;;;;;5054235;28;20221;-82
2022/01/11 10:16:22;;;;;;;16.17;11.50;;;0.90;99.90;;;;;;5054173;28;20201;-82
2022/01/11 10:18:52;;;;;;;12.00;9.17;;;1.00;99.90;;;;;;5054199;28;20206;-81
2022/01/11 10:21:36;;;;;;;13.53;9.13;;;1.00;99.90;;;;;;5056718;28;20241;-82
2022/01/11 10:24:24;;;;;;;10.83;8.80;;;1.20;99.90;;;;;;5061961;28;20222;-81
2022/01/11 10:26:58;;;;;;;15.97;9.83;;;1.40;99.90;;;;;;5054408;28;20260;-82
2022/01/11 10:29:54;;;;;;;12.80;9.70;;;1.70;99.90;;;;;;5056441;28;20189;-82
2022/01/11 10:32:39;;;;;;;11.00;9.83;;;1.80;99.90;;;;;;5067805;28;20296;-81
2022/01/11 10:35:56;;;;;;;13.30;9.70;;;2.10;99.90;;;;;;5067404;28;20301;-81
2022/01/11 10:38:49;;;;;;;15.07;9.05;;;2.60;99.90;;;;;;5052830;28;20204;-81
2022/01/11 10:49:14;;;;;;;10.02;8.90;;;3.50;99.90;;;;;;4967805;28;20200;-82
2022/01/11 10:55:42;;;;;;;19.42;12.23;;;3.60;99.90;;;;;;5041132;28;20218;-82
2022/01/11 10:58:25;;;;;;;15.07;9.95;;;3.90;99.90;;;;;;5041008;28;20256;-82
2022/01/11 11:00:57;;;;;;;12.93;10.25;;;4.20;99.90;;;;;;5052679;28;20260;-82
2022/01/11 11:03:33;;;;;;;10.90;9.80;;;4.30;99.90;;;;;;5053470;28;20228;-82
2022/01/11 11:06:11;;;;;;;15.88;10.18;;;4.00;99.90;;;;;;5053589;28;20259;-82
2022/01/11 11:08:48;;;;;;;10.07;9.02;;;4.10;99.90;;;;;;5052429;28;20267;-82
2022/01/11 11:11:23;;;;;;;14.27;10.85;;;4.60;99.90;;;;;;5033549;28;20202;-83
2022/01/11 11:13:54;;;;;;;15.32;10.52;;;5.00;99.90;;;;;;5050598;28;20253;-82
2022/01/11 11:16:29;;;;;;;12.73;10.45;;;5.60;99.90;;;;;;5053363;28;20210;-82
2022/01/11 11:19:37;;;;;;;14.30;10.50;;;5.50;99.90;;;;;;5050927;28;20243;-82
2022/01/11 11:22:13;;;;;;;17.02;10.80;;;6.00;99.90;;;;;;5045586;28;20202;-83
2022/01/11 11:25:15;;;;;;;12.63;10.07;;;6.20;99.90;;;;;;5053227;28;20439;-82
2022/01/11 11:27:45;;;;;;;11.38;10.05;;;5.90;99.90;;;;;;5053275;28;20209;-82
2022/01/11 11:30:22;;;;;;;13.32;10.77;;;5.70;99.90;;;;;;5052011;28;20209;-82
2022/01/11 11:32:54;;;;;;;16.20;10.93;;;5.40;99.90;;;;;;5058172;28;20217;-83
2022/01/11 11:52:48;;;;;;;11.80;10.10;;;6.20;99.90;;;;;;5012051;28;20195;-81
2022/01/11 11:59:26;;;;;;;11.25;9.60;;;6.20;99.30;;;;;;4819920;29;20224;-80
2022/01/11 12:05:45;;;;;;;12.82;9.80;;;5.30;99.50;;;;;;4841039;29;20232;-80
2022/01/11 12:08:33;;;;;;;16.15;11.63;;;4.60;99.90;;;;;;4888834;28;20217;-80
2022/01/11 12:11:04;;;;;;;16.45;9.98;;;4.20;99.90;;;;;;4972673;28;20208;-80
2022/01/11 12:13:48;;;;;;;13.43;10.55;;;4.60;99.90;;;;;;4984590;28;20226;-79
2022/01/11 12:16:45;;;;;;;17.45;11.90;;;4.50;99.90;;;;;;4962203;28;20203;-80
2022/01/11 12:19:44;;;;;;;14.13;11.10;;;4.10;99.90;;;;;;4980481;28;20204;-80
2022/01/11 12:22:19;;;;;;;16.80;10.52;;;3.30;99.90;;;;;;4962893;28;20296;-80
2022/01/11 12:24:50;;;;;;;14.88;10.82;;;2.80;99.90;;;;;;4992533;28;20215;-80
2022/01/11 12:27:22;;;;;;;15.40;9.97;;;2.50;99.90;;;;;;4992214;28;20235;-80
2022/01/11 12:30:06;;;;;;;10.48;8.95;;;2.40;99.90;;;;;;4980479;28;20200;-79
2022/01/11 12:32:57;;;;;;;14.50;10.20;;;2.40;99.90;;;;;;4973719;28;20204;-80
2022/01/11 12:35:25;;;;;;;14.43;9.77;;;2.40;99.90;;;;;;4984001;28;20227;-80
2022/01/11 12:38:29;;;;;;;13.98;10.82;;;2.20;99.90;;;;;;4990518;28;20204;-86
2022/01/11 12:47:46;;;;;;;17.70;11.02;;;2.40;99.90;;;;;;4987492;28;20209;-81
2022/01/11 12:50:16;;;;;;;13.82;9.80;;;2.20;99.90;;;;;;4976567;28;20307;-80
2022/01/11 12:52:47;;;;;;;15.47;9.83;;;2.00;99.90;;;;;;4977002;28;20209;-80
2022/01/11 12:55:16;;;;;;;16.10;10.30;;;1.80;99.90;;;;;;4976854;28;20232;-81
2022/01/11 12:57:44;;;;;;;12.17;9.30;;;1.40;99.90;;;;;;4977203;28;20219;-81
2022/01/11 13:00:21;;;;;;;17.00;12.03;;;1.40;99.90;;;;;;4976543;28;20212;-80
2022/01/11 13:02:52;;;;;;;15.50;9.53;;;1.60;99.90;;;;;;4977353;28;20208;-82
2022/01/11 13:05:21;;;;;;;15.17;9.90;;;1.60;99.90;;;;;;4976669;28;20302;-82
2022/01/11 13:07:54;;;;;;;12.03;9.43;;;1.60;99.90;;;;;;4989050;28;20199;-82
2022/01/11 13:10:23;;;;;;;14.70;10.03;;;1.40;99.90;;;;;;4956846;29;20205;-82
2022/01/11 13:12:55;;;;;;;12.10;9.43;;;1.50;99.90;;;;;;4981912;28;20212;-82
2022/01/11 13:15:32;;;;;;;20.60;10.82;;;2.00;99.90;;;;;;4996266;28;20228;-82
2022/01/11 13:18:09;;;;;;;17.83;11.55;;;2.80;99.90;;;;;;4996106;28;20278;-81
2022/01/11 13:20:55;;;;;;;14.10;10.05;;;3.40;99.90;;;;;;4981510;28;20200;-82
2022/01/11 13:23:46;;;;;;;16.95;10.57;;;3.90;99.90;;;;;;4970306;28;20215;-82
2022/01/11 13:26:18;;;;;;;14.85;11.02;;;4.20;99.90;;;;;;4982535;28;20283;-83
2022/01/11 13:28:49;;;;;;;21.85;10.70;;;4.40;99.90;;;;;;4976001;28;20240;-83
2022/01/11 13:31:20;;;;;;;15.27;10.45;;;4.50;99.90;;;;;;4976333;28;20205;-83
2022/01/11 13:33:52;;;;;;;13.52;10.30;;;4.70;99.90;;;;;;4975632;28;20224;-82
2022/01/11 13:36:23;;;;;;;17.75;10.93;;;4.60;99.90;;;;;;4976224;28;20231;-83
2022/01/11 13:38:55;;;;;;;15.85;10.25;;;4.30;99.90;;;;;;4975705;28;20204;-83
2022/01/11 13:41:29;;;;;;;16.05;12.05;;;4.10;99.90;;;;;;4975716;28;20209;-80
2022/01/11 13:44:09;;;;;;;24.33;12.55;;;3.80;99.90;;;;;;4976046;28;20271;-83
2022/01/11 13:46:43;;;;;;;17.48;10.40;;;3.50;99.90;;;;;;4976355;28;20263;-85
2022/01/11 13:49:18;;;;;;;11.68;9.52;;;3.40;99.90;;;;;;4975217;28;20231;-82
2022/01/11 13:51:49;;;;;;;13.75;9.85;;;2.70;99.90;;;;;;4979767;28;20284;-84
2022/01/11 13:54:18;;;;;;;12.98;9.55;;;2.30;99.90;;;;;;4974325;28;20248;-84
2022/01/11 13:56:48;;;;;;;15.13;10.80;;;2.10;99.90;;;;;;4976355;28;20231;-83
2022/01/11 13:59:26;;;;;;;11.40;9.50;;;2.00;99.90;;;;;;4980969;28;20212;-84
2022/01/11 14:02:13;;;;;;;12.63;9.93;;;2.00;99.90;;;;;;4976814;28;20239;-84
2022/01/11 14:04:45;;;;;;;17.27;11.18;;;2.10;99.90;;;;;;4991248;28;20243;-83
2022/01/11 14:07:17;;;;;;;14.25;10.70;;;2.20;99.90;;;;;;4958656;28;20209;-83
2022/01/11 14:09:51;;;;;;;11.38;9.82;;;2.20;99.90;;;;;;4986170;28;20214;-83
2022/01/11 14:12:30;;;;;;;14.83;10.17;;;2.10;99.90;;;;;;4993393;28;20264;-83
2022/01/11 14:15:22;;;;;;;16.00;9.70;;;1.90;99.90;;;;;;4977179;28;20313;-83
2022/01/11 14:17:50;;;;;;;16.33;10.43;;;2.00;99.90;;;;;;4989905;28;20278;-83
2022/01/11 14:20:23;;;;;;;18.00;10.20;;;2.00;99.90;;;;;;4994109;28;20239;-83
2022/01/11 14:22:54;;;;;;;12.60;9.60;;;1.80;99.90;;;;;;4977081;28;20213;-83
2022/01/11 14:25:25;;;;;;;10.30;9.27;;;1.70;99.90;;;;;;4975705;28;20217;-83
2022/01/11 14:28:02;;;;;;;13.40;11.10;;;1.70;99.90;;;;;;4975356;28;20208;-83
2022/01/11 14:30:39;;;;;;;24.30;9.60;;;1.70;99.90;;;;;;4980650;28;20200;-83
2022/01/11 14:33:15;;;;;;;12.90;10.77;;;1.70;99.90;;;;;;4994591;28;20294;-83